Time;durP1;ratioP1;P1;durP2;ratioP2;P2;SDS_P1;SDS_P2;PMS_P1;PMS_P2;Temp;Humidity;BMP_temperature;BMP_pressure;BME280_temperature;BME280_humidity;BME280_pressure;Samples;Min_cycle;Max_cycle;Signal;HPM_P1;HPM_P2
2021/05/21 00:01:13;;;;;;;6.47;5.82;;;;;;;30.80;58.72;100728.38;5063517;28;66296;-38
2021/05/21 00:03:43;;;;;;;7.50;6.00;;;;;;;30.88;59.09;100738.91;5073215;27;69215;-35
2021/05/21 00:06:13;;;;;;;10.55;5.88;;;;;;;30.94;59.58;100740.72;5064195;28;66266;-35
2021/05/21 00:08:43;;;;;;;19.58;6.35;;;;;;;30.94;59.93;100741.56;5068459;28;69484;-36
2021/05/21 00:11:14;;;;;;;9.48;6.22;;;;;;;30.96;59.85;100744.03;5067067;28;65364;-36
2021/05/21 00:13:44;;;;;;;9.95;5.95;;;;;;;31.10;60.61;100761.81;5071648;28;70176;-36
2021/05/21 00:16:15;;;;;;;18.98;5.57;;;;;;;31.11;60.15;100760.75;5070266;27;66980;-37
2021/05/21 00:18:51;;;;;;;6.28;5.68;;;;;;;31.24;60.84;100775.22;5071639;27;69275;-37
2021/05/21 00:21:21;;;;;;;8.45;5.45;;;;;;;31.28;61.28;100784.56;5065163;28;65146;-36
2021/05/21 00:23:52;;;;;;;24.67;6.43;;;;;;;31.25;61.20;100779.59;5060770;27;70715;-36
2021/05/21 00:26:22;;;;;;;15.02;5.43;;;;;;;31.35;61.92;100796.16;5071013;28;66155;-37
2021/05/21 00:28:52;;;;;;;15.63;6.15;;;;;;;31.38;61.87;100807.41;5059597;28;69502;-34
2021/05/21 00:31:23;;;;;;;11.18;5.65;;;;;;;31.44;61.53;100816.50;5066589;27;65478;-35
2021/05/21 00:33:53;;;;;;;16.55;6.90;;;;;;;31.49;61.22;100824.81;5069377;28;69706;-36
2021/05/21 00:36:24;;;;;;;12.98;6.40;;;;;;;31.44;60.65;100816.50;5066039;27;65293;-34
2021/05/21 00:38:54;;;;;;;22.50;6.13;;;;;;;31.59;60.63;100835.97;5072915;27;70145;-34
2021/05/21 00:41:26;;;;;;;5.95;5.38;;;;;;;31.63;60.26;100835.50;5058906;28;65378;-35
2021/05/21 00:43:57;;;;;;;15.18;6.25;;;;;;;31.65;60.44;100844.22;5067469;28;69402;-35
2021/05/21 00:46:28;;;;;;;10.93;6.22;;;;;;;31.68;60.14;100854.59;5072818;27;65388;-35
2021/05/21 00:48:59;;;;;;;11.52;6.32;;;;;;;31.64;60.07;100848.00;5071858;27;69696;-35
2021/05/21 00:51:29;;;;;;;11.35;6.70;;;;;;;31.73;59.76;100857.47;5060624;27;66090;-35
2021/05/21 00:54:00;;;;;;;18.25;6.50;;;;;;;31.67;59.59;100847.53;5063095;27;69991;-35
2021/05/21 00:56:32;;;;;;;14.68;6.13;;;;;;;31.75;59.76;100866.22;5069976;27;65881;-35
2021/05/21 00:59:03;;;;;;;8.30;6.25;;;;;;;31.78;59.31;100871.19;5070916;27;70056;-34
2021/05/21 01:01:34;;;;;;;11.65;6.57;;;;;;;31.77;59.73;100875.78;5067892;27;65464;-35
2021/05/21 01:04:05;;;;;;;10.65;7.07;;;;;;;31.45;59.04;100829.00;5076518;27;69878;-34
2021/05/21 01:06:36;;;;;;;9.10;6.40;;;;;;;31.60;59.01;100870.13;5074601;27;65900;-34
2021/05/21 01:09:06;;;;;;;11.68;6.82;;;;;;;31.80;59.33;100907.06;5069105;27;69855;-35
2021/05/21 01:11:37;;;;;;;11.77;6.60;;;;;;;31.80;59.02;100901.63;5069253;27;66109;-34
2021/05/21 01:14:07;;;;;;;8.90;7.45;;;;;;;31.82;59.27;100910.38;5072127;27;70461;-35
2021/05/21 01:16:37;;;;;;;12.55;6.97;;;;;;;31.84;58.89;100910.97;5070967;27;66088;-35
2021/05/21 01:19:08;;;;;;;10.55;7.25;;;;;;;31.86;59.02;100905.31;5074983;27;69190;-35
2021/05/21 01:21:39;;;;;;;8.45;7.65;;;;;;;31.86;58.84;100908.84;5060889;27;69020;-37
2021/05/21 01:24:10;;;;;;;9.88;7.32;;;;;;;31.81;58.60;100892.44;5062919;28;69974;-36
2021/05/21 01:26:40;;;;;;;8.75;7.85;;;;;;;31.88;58.55;100901.34;5073373;28;66268;-36
2021/05/21 01:29:10;;;;;;;11.18;7.57;;;;;;;31.88;58.77;100904.03;5065664;27;70164;-36
2021/05/21 01:31:44;;;;;;;8.63;7.32;;;;;;;31.92;58.25;100899.00;5066518;27;65977;-37
2021/05/21 01:34:16;;;;;;;8.23;7.53;;;;;;;31.91;58.26;100903.63;5068548;27;70006;-36
2021/05/21 01:36:47;;;;;;;8.23;7.43;;;;;;;31.93;58.27;100906.94;5073905;27;65968;-36
2021/05/21 01:39:18;;;;;;;8.50;7.90;;;;;;;31.92;58.46;100891.69;5067762;27;70056;-37
2021/05/21 01:41:49;;;;;;;9.77;7.80;;;;;;;31.93;58.58;100896.09;5060492;28;65557;-35
2021/05/21 01:44:22;;;;;;;12.38;7.18;;;;;;;31.92;58.17;100883.56;5065346;28;69968;-35
2021/05/21 01:46:53;;;;;;;8.10;7.00;;;;;;;31.94;58.04;100881.47;5066507;28;65797;-36
2021/05/21 01:49:26;;;;;;;7.97;6.82;;;;;;;31.99;57.89;100888.94;5058608;28;69799;-37
2021/05/21 01:52:00;;;;;;;8.25;7.40;;;;;;;32.00;57.82;100896.81;5064232;28;65212;-35
2021/05/21 01:54:31;;;;;;;9.95;7.65;;;;;;;32.03;57.96;100881.97;5064032;27;70170;-36
2021/05/21 01:57:03;;;;;;;9.25;7.55;;;;;;;32.02;57.62;100870.28;5068835;27;65980;-35
2021/05/21 01:59:36;;;;;;;8.15;7.30;;;;;;;32.07;57.88;100864.19;5061200;27;69206;-35
2021/05/21 02:02:10;;;;;;;8.52;7.35;;;;;;;31.94;57.64;100832.63;5063684;27;65908;-35
2021/05/21 02:04:43;;;;;;;8.65;7.38;;;;;;;32.16;57.66;100856.56;5066990;27;70205;-36
2021/05/21 02:07:18;;;;;;;7.70;7.15;;;;;;;32.21;57.51;100854.00;5072222;27;66140;-35
2021/05/21 02:10:04;;;;;;;8.30;7.30;;;;;;;32.21;57.65;100849.38;5069559;27;70304;-37
2021/05/21 02:12:37;;;;;;;7.43;6.88;;;;;;;32.28;57.03;100849.28;5063793;28;66478;-36
2021/05/21 02:15:21;;;;;;;8.13;7.43;;;;;;;32.26;57.18;100841.38;5068905;28;69477;-35
2021/05/21 02:17:55;;;;;;;7.32;6.78;;;;;;;32.33;57.34;100846.69;5066463;28;65155;-37
2021/05/21 02:20:26;;;;;;;;;;;;;;;32.12;57.98;100844.50;5067578;27;69940;-34
2021/05/21 02:22:59;;;;;;;7.10;6.50;;;;;;;32.34;57.50;100844.81;5064245;27;65796;-36
2021/05/21 02:25:30;;;;;;;7.38;6.88;;;;;;;32.37;57.08;100837.03;5063804;27;69494;-36
2021/05/21 02:28:03;;;;;;;7.63;6.93;;;;;;;32.42;56.84;100839.06;5061158;27;64680;-36
2021/05/21 02:30:33;;;;;;;7.13;6.53;;;;;;;32.41;57.11;100838.22;5066020;28;69957;-36
2021/05/21 02:33:07;;;;;;;7.25;6.60;;;;;;;32.47;57.15;100836.50;5065382;27;68057;-36
2021/05/21 02:35:46;;;;;;;8.48;6.88;;;;;;;32.40;57.01;100814.88;5067677;28;69297;-35
2021/05/21 02:38:16;;;;;;;8.70;7.22;;;;;;;32.53;56.46;100821.16;5069073;28;65891;-35
2021/05/21 02:40:48;;;;;;;8.10;7.10;;;;;;;32.55;56.79;100821.78;5063160;27;70178;-34
2021/05/21 02:43:38;;;;;;;8.30;6.68;;;;;;;32.58;56.62;100805.00;5070254;27;66130;-35
2021/05/21 02:46:09;;;;;;;7.70;6.88;;;;;;;32.60;56.59;100813.75;5067487;28;69350;-35
2021/05/21 02:48:41;;;;;;;7.43;6.68;;;;;;;32.61;56.60;100797.22;5071853;27;65939;-36
2021/05/21 02:51:20;;;;;;;7.07;6.47;;;;;;;32.56;56.44;100779.97;5058932;27;69963;-36
2021/05/21 02:53:54;;;;;;;7.72;6.97;;;;;;;32.67;56.49;100787.31;5064216;28;65960;-36
2021/05/21 02:56:28;;;;;;;7.40;6.88;;;;;;;32.64;56.63;100774.19;5058326;27;69063;-36
2021/05/21 02:59:01;;;;;;;7.38;6.75;;;;;;;32.72;56.43;100782.00;5068518;27;66607;-35
2021/05/21 03:01:34;;;;;;;7.18;6.68;;;;;;;32.77;56.48;100787.56;5072538;27;70019;-36
2021/05/21 03:04:07;;;;;;;7.18;6.57;;;;;;;32.74;56.29;100779.88;5055553;27;65551;-36
2021/05/21 03:06:50;;;;;;;6.60;6.20;;;;;;;32.83;56.27;100781.16;5070248;28;69772;-36
2021/05/21 03:09:28;;;;;;;7.22;6.70;;;;;;;32.75;56.05;100761.69;5068188;27;65866;-36
2021/05/21 03:11:59;;;;;;;7.45;6.88;;;;;;;32.91;56.06;100788.97;5062415;27;69169;-36
2021/05/21 03:14:33;;;;;;;10.27;6.82;;;;;;;32.94;56.29;100777.63;5066957;27;66511;-35
2021/05/21 03:17:05;;;;;;;7.13;6.63;;;;;;;32.91;55.75;100772.66;5067077;27;69098;-38
2021/05/21 03:19:46;;;;;;;7.22;6.63;;;;;;;32.63;55.76;100716.34;5073899;28;65714;-36
2021/05/21 03:22:18;;;;;;;8.88;6.80;;;;;;;32.98;56.08;100763.56;5071457;27;70777;-35
2021/05/21 03:24:51;;;;;;;7.45;6.70;;;;;;;33.00;55.92;100764.19;5065783;28;66214;-36
2021/05/21 03:27:22;;;;;;;6.75;6.15;;;;;;;33.01;55.81;100760.41;5072036;28;70002;-37
2021/05/21 03:29:55;;;;;;;6.78;6.18;;;;;;;33.00;55.92;100756.03;5070538;27;65406;-37
2021/05/21 03:32:26;;;;;;;7.93;7.13;;;;;;;33.08;55.78;100761.94;5076469;27;69551;-35
2021/05/21 03:34:59;;;;;;;6.20;5.57;;;;;;;33.10;55.82;100759.81;5074743;27;66229;-36
2021/05/21 03:37:31;;;;;;;7.57;6.90;;;;;;;33.06;55.90;100741.50;5059874;27;70770;-36
2021/05/21 03:40:02;;;;;;;6.72;6.10;;;;;;;33.13;55.41;100751.19;5065247;27;65901;-35
2021/05/21 03:42:33;;;;;;;7.68;6.50;;;;;;;33.15;55.71;100740.06;5073468;27;69941;-34
2021/05/21 03:45:06;;;;;;;6.13;5.53;;;;;;;33.20;55.63;100737.44;5061233;27;66286;-36
2021/05/21 03:47:38;;;;;;;8.82;6.20;;;;;;;33.24;55.55;100733.19;5071372;27;69980;-35
2021/05/21 03:50:10;;;;;;;6.65;5.75;;;;;;;33.27;55.53;100729.19;5058533;28;66760;-35
2021/05/21 03:52:42;;;;;;;7.35;6.60;;;;;;;33.32;55.30;100723.81;5074503;27;70284;-36
2021/05/21 03:55:22;;;;;;;6.60;6.00;;;;;;;33.32;55.21;100713.78;5067770;27;66168;-35
2021/05/21 03:58:00;;;;;;;6.43;6.03;;;;;;;33.33;55.51;100714.63;5073369;27;69906;-36
2021/05/21 04:00:32;;;;;;;5.53;5.13;;;;;;;33.34;55.20;100705.38;5069365;27;66210;-35
2021/05/21 04:03:08;;;;;;;8.30;6.22;;;;;;;33.43;55.33;100703.91;5063441;27;70043;-36
2021/05/21 04:05:43;;;;;;;5.95;5.53;;;;;;;33.44;55.33;100685.75;5077070;27;65574;-36
2021/05/21 04:08:18;;;;;;;6.28;5.78;;;;;;;33.49;55.08;100685.81;5070288;27;70509;-35
2021/05/21 04:10:49;;;;;;;6.67;6.10;;;;;;;33.52;55.16;100675.31;5073958;27;65886;-35
2021/05/21 04:13:37;;;;;;;5.88;5.43;;;;;;;33.56;55.00;100670.22;5067344;28;69146;-36
2021/05/21 04:16:13;;;;;;;6.22;5.82;;;;;;;33.56;55.09;100667.50;5066163;27;66227;-35
2021/05/21 04:18:46;;;;;;;6.13;5.53;;;;;;;33.59;54.84;100664.28;5071384;27;69160;-35
2021/05/21 04:21:21;;;;;;;7.22;5.60;;;;;;;32.96;54.95;100557.31;5069120;27;65869;-36
2021/05/21 04:23:55;;;;;;;7.88;5.28;;;;;;;33.68;54.67;100667.44;5072330;28;69660;-36
2021/05/21 04:26:34;;;;;;;5.68;5.22;;;;;;;33.73;54.44;100662.09;5064358;28;66432;-35
2021/05/21 04:29:07;;;;;;;7.00;5.40;;;;;;;33.75;54.49;100662.66;5063416;27;69237;-36
2021/05/21 04:31:43;;;;;;;5.53;5.00;;;;;;;33.47;54.42;100628.16;5070689;28;66277;-36
2021/05/21 04:34:17;;;;;;;5.45;4.95;;;;;;;33.75;54.57;100677.09;5070263;27;69789;-36
2021/05/21 04:36:58;;;;;;;6.43;5.40;;;;;;;33.37;54.58;100610.56;5064699;27;65953;-36
2021/05/21 04:39:32;;;;;;;5.40;5.10;;;;;;;33.77;54.53;100664.06;5067371;28;70084;-36
2021/05/21 04:42:06;;;;;;;5.22;4.93;;;;;;;33.77;54.50;100661.34;5072646;27;65748;-35
2021/05/21 04:44:50;;;;;;;5.47;5.10;;;;;;;33.77;54.56;100658.63;5070061;27;69827;-36
2021/05/21 04:47:20;;;;;;;7.72;5.10;;;;;;;33.81;54.51;100657.06;5073730;27;66252;-36
2021/05/21 04:50:00;;;;;;;5.65;5.25;;;;;;;33.70;54.10;100633.47;5068984;28;69442;-33
2021/05/21 04:52:31;;;;;;;5.13;4.83;;;;;;;33.79;54.61;100640.19;5070505;27;66605;-35
2021/05/21 04:55:03;;;;;;;5.07;4.78;;;;;;;33.75;54.40;100636.28;5074284;27;70016;-36
2021/05/21 04:57:34;;;;;;;6.00;4.93;;;;;;;33.72;54.59;100638.69;5064343;27;65403;-36
2021/05/21 05:00:10;;;;;;;5.25;4.75;;;;;;;33.81;54.42;100667.94;5068983;28;69200;-36
2021/05/21 05:02:42;;;;;;;7.85;5.07;;;;;;;33.76;54.34;100654.25;5054656;28;66286;-35
2021/05/21 05:05:16;;;;;;;4.88;4.57;;;;;;;33.79;54.57;100647.50;5071840;27;70275;-36
2021/05/21 05:07:48;;;;;;;7.20;5.07;;;;;;;33.77;54.37;100639.59;5070365;27;64959;-35
2021/05/21 05:10:22;;;;;;;5.25;4.80;;;;;;;33.70;54.49;100614.44;5067293;28;69783;-35
2021/05/21 05:12:57;;;;;;;5.55;5.15;;;;;;;33.78;54.35;100618.66;5071768;27;66399;-36
2021/05/21 05:15:27;;;;;;;4.90;4.40;;;;;;;33.76;54.42;100615.34;5073660;28;70060;-36
2021/05/21 05:18:01;;;;;;;5.38;4.88;;;;;;;33.76;54.62;100613.44;5069634;27;66926;-35
2021/05/21 05:20:32;;;;;;;5.38;4.78;;;;;;;33.76;54.56;100615.34;5070961;27;68496;-37
2021/05/21 05:23:10;;;;;;;7.18;4.45;;;;;;;33.69;54.38;100599.19;5071823;27;65979;-36
2021/05/21 05:25:43;;;;;;;5.65;4.60;;;;;;;33.78;54.52;100607.78;5072911;28;70185;-36
2021/05/21 05:28:16;;;;;;;5.15;4.82;;;;;;;33.65;54.48;100581.69;5074963;27;65951;-36
2021/05/21 05:30:48;;;;;;;5.22;3.75;;;;;;;33.68;54.42;100581.19;5069895;28;70141;-35
2021/05/21 05:33:20;;;;;;;5.20;4.70;;;;;;;33.75;54.49;100586.50;5072008;27;65988;-36
2021/05/21 05:35:56;;;;;;;4.45;4.15;;;;;;;33.56;54.55;100556.00;5062526;27;69692;-35
2021/05/21 05:38:37;;;;;;;4.47;4.05;;;;;;;33.75;54.49;100576.44;5071488;27;66268;-36
2021/05/21 05:41:10;;;;;;;5.35;4.57;;;;;;;33.54;54.64;100542.66;5062340;28;69128;-36
2021/05/21 05:43:45;;;;;;;4.72;4.32;;;;;;;33.64;54.64;100541.97;5073162;27;65795;-36
2021/05/21 05:46:17;;;;;;;4.38;3.97;;;;;;;33.72;54.50;100544.28;5063443;27;70040;-36
2021/05/21 05:49:10;;;;;;;5.18;4.75;;;;;;;33.69;54.34;100539.34;5071983;28;66406;-35
2021/05/21 05:51:41;;;;;;;4.30;3.95;;;;;;;33.71;54.50;100550.81;5073125;28;70339;-36
2021/05/21 05:54:16;;;;;;;4.75;4.45;;;;;;;33.67;54.73;100567.88;5065189;27;66440;-35
2021/05/21 05:57:09;;;;;;;5.03;4.72;;;;;;;33.70;54.60;100579.06;5071107;27;68876;-35
2021/05/21 05:59:48;;;;;;;4.93;4.38;;;;;;;33.70;54.59;100573.63;5066783;27;66534;-36
2021/05/21 06:02:19;;;;;;;7.63;3.80;;;;;;;33.71;54.58;100586.19;5067149;28;70062;-36
2021/05/21 06:04:52;;;;;;;4.57;4.13;;;;;;;33.65;54.49;100584.41;5063738;27;65052;-36
2021/05/21 06:07:36;;;;;;;3.78;3.47;;;;;;;33.71;54.70;100591.63;5066595;27;70115;-36
2021/05/21 06:10:07;;;;;;;4.35;4.05;;;;;;;33.71;54.64;100580.75;5073153;27;65293;-35
2021/05/21 06:12:38;;;;;;;;;;;;;;;33.40;55.30;100584.78;5069896;27;70162;-35
2021/05/21 06:15:12;;;;;;;3.28;3.05;;;;;;;33.61;54.85;100591.44;5070067;27;65205;-35
2021/05/21 06:17:53;;;;;;;4.38;4.07;;;;;;;33.36;54.61;100565.41;5070027;27;70075;-35
2021/05/21 06:20:33;;;;;;;3.72;3.42;;;;;;;33.29;54.78;100578.34;5071622;27;65557;-36
2021/05/21 06:23:09;;;;;;;5.97;4.28;;;;;;;33.69;54.76;100659.03;5071726;27;69293;-36
2021/05/21 06:28:21;;;;;;;3.90;3.60;;;;;;;33.68;54.65;100667.44;5062123;28;70255;-36
2021/05/21 06:30:55;;;;;;;3.78;3.58;;;;;;;33.67;55.03;100657.63;5067241;27;65964;-36
2021/05/21 06:33:27;;;;;;;7.20;4.45;;;;;;;33.65;54.92;100652.41;5069252;27;69037;-36
2021/05/21 06:35:58;;;;;;;6.55;4.32;;;;;;;33.64;55.16;100677.97;5062498;27;66242;-36
2021/05/21 06:38:35;;;;;;;10.30;4.90;;;;;;;33.64;55.43;100677.97;5069594;27;69341;-35
2021/05/21 06:41:07;;;;;;;7.70;4.43;;;;;;;33.62;55.27;100666.50;5072792;27;65909;-36
2021/05/21 06:43:37;;;;;;;6.22;4.78;;;;;;;33.62;55.49;100658.34;5065820;27;69838;-36
2021/05/21 06:46:22;;;;;;;7.10;4.10;;;;;;;33.60;55.40;100655.06;5062485;28;66328;-37
2021/05/21 06:48:56;;;;;;;5.95;3.80;;;;;;;33.56;55.33;100634.84;5067837;27;70139;-36
2021/05/21 06:51:27;;;;;;;6.43;4.40;;;;;;;33.55;55.55;100638.66;5069109;28;66746;-36
2021/05/21 06:54:10;;;;;;;7.97;4.35;;;;;;;33.52;55.53;100641.84;5068088;28;69392;-36
2021/05/21 06:56:44;;;;;;;5.72;3.95;;;;;;;33.50;55.63;100639.34;5070760;27;66054;-35
2021/05/21 06:59:18;;;;;;;4.20;3.90;;;;;;;33.50;55.70;100654.84;5071041;28;68258;-36
2021/05/21 07:01:51;;;;;;;4.13;3.47;;;;;;;33.37;55.61;100631.47;5060001;28;66232;-36
2021/05/21 07:04:24;;;;;;;4.65;3.92;;;;;;;33.46;55.54;100651.81;5070746;27;69324;-35
2021/05/21 07:07:09;;;;;;;5.53;3.42;;;;;;;33.44;55.55;100644.94;5064162;28;66994;-35
2021/05/21 07:09:42;;;;;;;3.90;3.50;;;;;;;33.27;55.65;100623.97;5072369;27;69985;-35
2021/05/21 07:12:17;;;;;;;4.28;3.88;;;;;;;33.40;55.89;100649.22;5074852;27;66268;-35
2021/05/21 07:14:49;;;;;;;4.47;3.47;;;;;;;33.40;55.62;100649.22;5073568;27;69040;-36
2021/05/21 07:17:25;;;;;;;3.20;2.90;;;;;;;33.35;55.79;100631.75;5063328;27;66393;-35
2021/05/21 07:20:00;;;;;;;6.93;3.70;;;;;;;33.34;55.84;100615.66;5070532;27;70067;-36
2021/05/21 07:22:41;;;;;;;3.63;3.30;;;;;;;33.30;55.94;100607.19;5076713;27;66210;-36
2021/05/21 07:25:15;;;;;;;3.85;3.47;;;;;;;33.30;55.86;100588.16;5072654;27;69453;-36
2021/05/21 07:27:49;;;;;;;3.60;2.97;;;;;;;33.29;55.78;100577.50;5069850;27;64805;-35
2021/05/21 07:30:20;;;;;;;;;;;;;;;32.96;56.67;100570.06;5071622;27;69270;-36
2021/05/21 07:32:54;;;;;;;3.42;3.13;;;;;;;33.22;56.10;100569.50;5073302;27;66301;-35
2021/05/21 07:35:30;;;;;;;3.53;3.08;;;;;;;33.23;56.04;100579.31;5058013;27;69714;-36
2021/05/21 07:38:15;;;;;;;4.85;2.65;;;;;;;33.11;56.06;100571.22;5060641;28;66785;-36
2021/05/21 07:40:50;;;;;;;5.15;2.83;;;;;;;33.17;56.19;100572.13;5062256;27;69660;-36
2021/05/21 07:43:24;;;;;;;3.50;2.67;;;;;;;33.19;56.22;100571.91;5070853;27;66341;-36
2021/05/21 07:45:57;;;;;;;3.85;2.85;;;;;;;33.18;56.21;100564.78;5072790;27;71009;-36
2021/05/21 07:48:28;;;;;;;3.60;2.67;;;;;;;33.09;56.34;100550.78;5071557;27;65822;-35
2021/05/21 07:51:11;;;;;;;2.83;2.63;;;;;;;33.12;56.52;100556.53;5075301;28;69422;-37
2021/05/21 07:53:43;;;;;;;3.10;2.80;;;;;;;33.11;56.31;100567.66;5072072;27;66355;-36
2021/05/21 07:56:19;;;;;;;3.15;2.85;;;;;;;33.10;56.35;100574.19;5064863;28;69885;-36
2021/05/21 07:58:50;;;;;;;2.60;2.40;;;;;;;33.04;56.35;100569.69;5068948;28;66362;-36
2021/05/21 08:01:24;;;;;;;3.17;2.72;;;;;;;33.08;56.37;100570.88;5071866;27;69723;-35
2021/05/21 08:03:56;;;;;;;3.20;2.80;;;;;;;33.07;56.20;100564.63;5074205;27;66085;-35
2021/05/21 08:06:35;;;;;;;4.70;2.70;;;;;;;32.88;56.23;100542.22;5063579;27;70103;-36
2021/05/21 08:09:10;;;;;;;2.80;2.60;;;;;;;33.06;56.57;100562.13;5061227;27;66062;-36
2021/05/21 08:11:46;;;;;;;3.22;2.97;;;;;;;32.94;56.44;100532.28;5074491;28;70188;-37
2021/05/21 08:14:23;;;;;;;2.75;2.50;;;;;;;33.00;56.43;100535.94;5055344;28;66069;-36
2021/05/21 08:16:58;;;;;;;3.47;3.17;;;;;;;32.73;56.60;100482.16;5068161;27;70540;-35
2021/05/21 08:19:48;;;;;;;3.00;2.70;;;;;;;32.98;56.73;100508.16;5066121;28;65910;-40
2021/05/21 08:22:25;;;;;;;3.20;2.90;;;;;;;32.98;56.67;100500.00;5064764;28;69692;-38
2021/05/21 08:24:58;;;;;;;3.40;2.40;;;;;;;32.96;56.54;100504.84;5060945;27;66011;-36
2021/05/21 08:27:34;;;;;;;2.78;2.58;;;;;;;32.90;56.47;100488.47;5076200;27;70426;-35
2021/05/21 08:30:08;;;;;;;4.70;2.30;;;;;;;32.94;56.40;100494.25;5075072;27;65817;-36
2021/05/21 08:32:39;;;;;;;3.20;2.90;;;;;;;32.93;56.86;100492.56;5065971;28;69872;-35
2021/05/21 08:35:11;;;;;;;2.90;2.70;;;;;;;32.90;56.92;100488.47;5075436;27;65247;-37
2021/05/21 08:37:47;;;;;;;3.28;2.97;;;;;;;32.92;56.67;100480.06;5067882;27;69981;-36
2021/05/21 08:40:27;;;;;;;3.10;2.38;;;;;;;32.87;56.71;100483.50;5061994;27;64874;-35
2021/05/21 08:42:59;;;;;;;3.00;2.73;;;;;;;32.87;56.74;100471.81;5075555;27;69830;-36
2021/05/21 08:45:34;;;;;;;3.42;2.83;;;;;;;32.77;56.79;100455.34;5064073;27;65932;-36
2021/05/21 08:48:14;;;;;;;3.00;2.65;;;;;;;32.75;57.09;100447.44;5064981;27;69872;-36
2021/05/21 08:50:52;;;;;;;3.22;2.88;;;;;;;32.83;56.79;100460.63;5066233;28;66844;-36
2021/05/21 08:53:23;;;;;;;2.90;2.55;;;;;;;32.84;56.98;100473.13;5069526;28;69842;-36
2021/05/21 08:55:58;;;;;;;3.72;3.00;;;;;;;32.58;56.85;100424.84;5063577;27;65781;-35
2021/05/21 08:58:37;;;;;;;4.03;3.10;;;;;;;32.51;57.06;100399.72;5065964;27;70029;-35
2021/05/21 09:01:10;;;;;;;4.13;3.03;;;;;;;32.81;57.17;100451.88;5069435;27;65594;-36
2021/05/21 09:03:46;;;;;;;2.85;2.65;;;;;;;32.81;57.25;100448.34;5070465;27;70115;-36
2021/05/21 09:06:21;;;;;;;3.25;2.75;;;;;;;32.79;57.30;100437.75;5067416;27;65913;-35
2021/05/21 09:09:00;;;;;;;3.40;3.10;;;;;;;32.39;57.30;100368.00;5060340;27;69861;-35
2021/05/21 09:11:44;;;;;;;3.42;3.13;;;;;;;32.78;57.22;100425.22;5059836;27;65688;-35
2021/05/21 09:14:22;;;;;;;2.95;2.70;;;;;;;32.70;57.50;100418.28;5073287;27;69650;-34
2021/05/21 09:16:58;;;;;;;5.30;2.88;;;;;;;32.49;57.41;100379.09;5070356;27;66108;-35
2021/05/21 09:19:30;;;;;;;2.97;2.78;;;;;;;32.75;57.05;100425.69;5066506;27;69346;-37
2021/05/21 09:22:07;;;;;;;3.92;3.55;;;;;;;32.75;57.27;100412.13;5067537;28;66027;-35
2021/05/21 09:24:48;;;;;;;3.60;3.17;;;;;;;32.47;57.54;100370.34;5066659;27;69837;-36
2021/05/21 09:27:25;;;;;;;4.65;3.50;;;;;;;32.74;57.63;100434.13;5070939;27;65797;-36
2021/05/21 09:29:57;;;;;;;4.05;3.65;;;;;;;32.72;57.22;100437.06;5064718;27;70085;-36
2021/05/21 09:32:31;;;;;;;3.88;3.58;;;;;;;32.74;57.72;100451.22;5061965;28;66009;-36
2021/05/21 09:35:06;;;;;;;3.78;3.58;;;;;;;32.72;57.63;100461.50;5058841;28;71501;-36
2021/05/21 09:37:46;;;;;;;5.30;3.88;;;;;;;32.73;57.75;100460.41;5070333;28;66371;-36
2021/05/21 09:40:21;;;;;;;5.32;3.50;;;;;;;32.71;57.72;100470.72;5057750;28;69956;-36
2021/05/21 09:43:03;;;;;;;3.90;3.60;;;;;;;32.40;58.07;100423.09;5072652;27;65363;-36
2021/05/21 09:45:43;;;;;;;4.30;4.00;;;;;;;32.63;57.75;100473.81;5061896;28;69868;-36
2021/05/21 09:48:18;;;;;;;4.07;3.47;;;;;;;32.69;58.08;100494.59;5072608;28;65284;-35
2021/05/21 09:50:50;;;;;;;4.03;3.72;;;;;;;32.68;57.86;100495.63;5070993;27;70647;-36
2021/05/21 09:53:26;;;;;;;3.88;3.60;;;;;;;32.66;57.89;100501.31;5067147;27;65409;-36
2021/05/21 09:56:00;;;;;;;4.72;4.10;;;;;;;32.39;57.91;100454.84;5064733;27;70190;-36
2021/05/21 09:58:51;;;;;;;4.35;4.00;;;;;;;32.67;57.98;100510.28;5067819;27;66130;-36
2021/05/21 10:01:25;;;;;;;4.75;4.35;;;;;;;32.66;58.11;100514.91;5065020;28;69115;-35
2021/05/21 10:03:58;;;;;;;4.43;4.13;;;;;;;32.66;58.27;100524.94;5074151;27;65784;-36
2021/05/21 10:06:36;;;;;;;5.20;4.75;;;;;;;32.50;58.62;100510.22;5068578;27;69515;-36
2021/05/21 10:09:10;;;;;;;4.35;3.75;;;;;;;32.62;58.32;100550.91;5066997;27;66783;-36
2021/05/21 10:11:42;;;;;;;4.35;4.03;;;;;;;32.63;58.29;100552.56;5071631;27;69934;-36
2021/05/21 10:14:13;;;;;;;4.53;4.15;;;;;;;32.62;58.50;100553.63;5072683;27;65477;-36
2021/05/21 10:16:49;;;;;;;4.13;3.72;;;;;;;32.59;58.56;100548.69;5072503;27;70264;-36
2021/05/21 10:19:26;;;;;;;4.57;4.18;;;;;;;32.18;58.61;100485.34;5069677;27;66272;-36
2021/05/21 10:22:00;;;;;;;7.32;5.00;;;;;;;32.62;58.41;100559.06;5069215;27;70356;-36
2021/05/21 10:24:36;;;;;;;5.32;4.82;;;;;;;32.40;58.45;100520.81;5065999;28;66709;-36
2021/05/21 10:27:31;;;;;;;4.90;4.18;;;;;;;31.91;58.66;100442.47;5067477;27;70564;-36
2021/05/21 10:30:07;;;;;;;4.93;4.38;;;;;;;32.59;58.64;100557.66;5048708;28;65866;-38
2021/05/21 10:32:39;;;;;;;4.75;4.35;;;;;;;32.60;58.86;100569.34;5065441;27;69091;-37
2021/05/21 10:35:17;;;;;;;5.60;5.10;;;;;;;32.59;58.68;100575.84;5070278;27;65912;-38
2021/05/21 10:38:24;;;;;;;5.13;4.63;;;;;;;32.07;58.77;100505.19;5067167;28;69423;-36
2021/05/21 10:41:18;;;;;;;5.07;4.53;;;;;;;32.51;58.92;100570.78;5066276;28;66179;-35
2021/05/21 10:44:17;;;;;;;7.28;5.47;;;;;;;32.54;59.58;100589.28;5056506;27;70143;-36
2021/05/21 10:46:49;;;;;;;7.93;6.13;;;;;;;32.25;60.46;100529.47;5070318;28;66456;-35
2021/05/21 10:49:26;;;;;;;16.27;7.22;;;;;;;32.57;61.97;100596.97;5067999;28;70491;-38
2021/05/21 10:52:01;;;;;;;13.18;8.50;;;;;;;32.19;62.24;100546.72;5071595;28;66538;-37
2021/05/21 10:54:33;;;;;;;18.48;11.95;;;;;;;32.27;63.44;100568.06;5073517;27;69708;-37
2021/05/21 10:57:15;;;;;;;19.52;10.75;;;;;;;32.43;63.92;100613.50;5063948;28;67067;-38
2021/05/21 10:59:53;;;;;;;15.65;10.40;;;;;;;32.39;64.64;100614.19;5067958;27;70417;-38
2021/05/21 11:02:45;;;;;;;10.30;9.07;;;;;;;32.28;65.88;100611.25;5066727;27;66406;-36
2021/05/21 11:05:27;;;;;;;11.63;8.70;;;;;;;32.25;65.36;100613.59;5069950;28;71048;-38
2021/05/21 11:08:00;;;;;;;12.40;9.02;;;;;;;31.86;64.61;100552.69;5063424;28;66462;-37
2021/05/21 11:10:34;;;;;;;12.40;8.48;;;;;;;32.16;65.46;100628.59;5066026;27;70029;-37
2021/05/21 11:13:13;;;;;;;16.75;8.93;;;;;;;32.13;65.58;100639.94;5066930;27;66025;-37
2021/05/21 11:15:55;;;;;;;13.75;9.57;;;;;;;32.13;66.12;100642.66;5065030;28;69714;-36
2021/05/21 11:18:34;;;;;;;13.73;10.38;;;;;;;32.09;65.74;100623.28;5062257;28;65420;-37
2021/05/21 11:21:18;;;;;;;15.38;11.38;;;;;;;32.08;66.76;100631.66;5070353;27;69984;-35
2021/05/21 11:24:01;;;;;;;22.90;11.63;;;;;;;32.08;66.03;100642.50;5063460;27;66417;-37
2021/05/21 11:26:41;;;;;;;23.77;11.25;;;;;;;31.58;65.83;100571.28;5067239;28;69773;-37
2021/05/21 11:29:18;;;;;;;15.23;11.13;;;;;;;31.96;66.39;100646.03;5066458;28;67121;-39
2021/05/21 11:31:50;;;;;;;17.38;11.05;;;;;;;31.52;65.86;100574.94;5065309;27;69863;-36
2021/05/21 11:34:20;;;;;;;;;;;;;;;31.60;67.44;100653.22;5070713;27;65819;-37
2021/05/21 11:36:55;;;;;;;13.43;11.15;;;;;;;31.44;67.01;100588.81;5069637;27;69218;-38
2021/05/21 11:39:27;;;;;;;17.75;13.02;;;;;;;31.82;66.45;100655.41;5066110;27;66152;-36
2021/05/21 11:41:58;;;;;;;23.42;14.10;;;;;;;31.80;66.52;100660.25;5066495;28;70359;-38
2021/05/21 11:44:31;;;;;;;16.70;12.90;;;;;;;31.67;66.88;100652.28;5065710;27;65464;-37
2021/05/21 11:47:05;;;;;;;23.10;13.95;;;;;;;31.64;66.40;100652.75;5069826;28;70092;-38
2021/05/21 11:49:37;;;;;;;20.13;13.95;;;;;;;31.69;67.18;100677.31;5072629;27;65198;-37
2021/05/21 11:52:11;;;;;;;27.35;13.77;;;;;;;31.65;67.39;100670.66;5071367;27;69871;-37
2021/05/21 11:54:41;;;;;;;26.55;14.27;;;;;;;31.57;67.44;100671.84;5066691;28;65292;-36
2021/05/21 11:57:19;;;;;;;14.68;13.35;;;;;;;31.59;67.71;100689.53;5073430;28;69699;-36
2021/05/21 11:59:56;;;;;;;20.25;13.02;;;;;;;31.13;68.16;100631.31;5069015;28;67448;-35
2021/05/21 12:02:27;;;;;;;17.95;13.00;;;;;;;31.42;67.92;100679.53;5067601;28;68772;-36